createdAt,value
2023-04-10T00:04:22.269Z,5.12
2023-04-10T00:09:24.061Z,5.13
2023-04-10T00:14:25.884Z,5.05
2023-04-10T00:19:27.546Z,4.97
2023-04-10T00:24:29.150Z,4.91
2023-04-10T00:29:30.851Z,4.92
2023-04-10T00:34:32.553Z,4.92
2023-04-10T00:39:34.650Z,4.87
2023-04-10T00:44:37.740Z,4.78
2023-04-10T00:49:39.467Z,4.77
2023-04-10T00:54:41.421Z,4.69
2023-04-10T00:59:43.478Z,4.59
2023-04-10T01:04:45.140Z,4.55
2023-04-10T01:09:59.923Z,4.48
2023-04-10T01:15:04.116Z,4.40
2023-04-10T01:20:16.509Z,4.30
2023-04-10T01:25:34.947Z,4.30
2023-04-10T01:30:37.364Z,4.33
2023-04-10T01:35:40.967Z,4.23
2023-04-10T01:40:48.993Z,4.18
2023-04-10T01:45:54.161Z,4.15
2023-04-10T01:50:56.295Z,4.05
2023-04-10T01:55:58.445Z,3.96
2023-04-10T02:01:01.596Z,3.82
2023-04-10T02:06:17.798Z,3.80
2023-04-10T02:11:25.434Z,3.85
2023-04-10T02:16:27.893Z,3.74
2023-04-10T02:21:29.744Z,3.67
2023-04-10T02:26:31.387Z,3.61
2023-04-10T02:31:33.102Z,3.60
2023-04-10T02:36:38.686Z,3.60
2023-04-10T02:41:42.182Z,3.56
2023-04-10T02:46:47.197Z,3.55
2023-04-10T02:51:49.768Z,3.42
2023-04-10T02:56:51.419Z,3.37
2023-04-10T03:01:53.151Z,3.46
2023-04-10T03:06:55.893Z,3.48
2023-04-10T03:11:58.796Z,3.54
2023-04-10T03:17:00.641Z,3.57
2023-04-10T03:22:03.649Z,3.62
2023-04-10T03:27:05.492Z,3.66
2023-04-10T03:32:08.735Z,3.72
2023-04-10T03:37:12.089Z,3.74
2023-04-10T03:42:13.831Z,3.80
2023-04-10T03:47:16.289Z,3.80
2023-04-10T03:52:23.521Z,3.87
2023-04-10T03:57:25.688Z,3.88
2023-04-10T04:02:31.838Z,3.90
2023-04-10T04:07:33.764Z,3.89
2023-04-10T04:12:45.532Z,3.77
2023-04-10T04:18:13.395Z,3.67
2023-04-10T04:23:18.828Z,3.64
2023-04-10T04:28:43.501Z,3.73
2023-04-10T04:34:23.620Z,3.80
2023-04-10T04:39:45.832Z,3.80
2023-04-10T04:45:10.822Z,3.84
2023-04-10T04:50:12.503Z,3.88
2023-04-10T04:55:29.090Z,3.95
2023-04-10T05:00:38.564Z,4.01
2023-04-10T05:05:56.846Z,4.01
2023-04-10T05:11:16.921Z,4.02
2023-04-10T05:16:27.545Z,4.17
2023-04-10T05:21:36.463Z,4.32
2023-04-10T05:26:57.798Z,4.35
2023-04-10T05:32:18.303Z,4.56
2023-04-10T05:37:46.013Z,4.92
2023-04-10T05:43:16.721Z,5.16
2023-04-10T05:48:34.913Z,5.50
2023-04-10T05:53:52.996Z,5.79
2023-04-10T05:59:14.223Z,6.81
2023-04-10T06:04:36.289Z,8.13
2023-04-10T06:09:38.294Z,8.57
2023-04-10T06:14:44.532Z,9.51
2023-04-10T06:19:47.680Z,9.90
2023-04-10T06:24:49.383Z,10.97
2023-04-10T06:29:51.149Z,10.55
2023-04-10T06:34:56.510Z,10.32
2023-04-10T06:40:09.392Z,9.49
2023-04-10T06:45:11.597Z,9.98
2023-04-10T06:50:13.199Z,10.98
2023-04-10T06:55:14.810Z,11.64
2023-04-10T07:00:16.843Z,11.17
2023-04-10T07:05:18.649Z,10.67
2023-04-10T07:10:20.306Z,11.71
2023-04-10T07:15:21.920Z,11.34
2023-04-10T07:20:23.615Z,11.11
2023-04-10T07:25:25.386Z,11.47
2023-04-10T07:30:27.026Z,12.23
2023-04-10T07:35:28.684Z,12.40
2023-04-10T07:40:30.398Z,11.82
2023-04-10T07:45:32.739Z,11.52
2023-04-10T07:50:34.365Z,11.18
2023-04-10T07:55:43.187Z,11.17
2023-04-10T08:00:45.016Z,10.99
2023-04-10T08:05:46.704Z,11.48
2023-04-10T08:10:48.788Z,11.62
2023-04-10T08:15:50.646Z,11.72
2023-04-10T08:20:52.270Z,11.89
2023-04-10T08:25:53.896Z,12.14
2023-04-10T08:30:55.708Z,12.26
2023-04-10T08:35:57.633Z,12.26
2023-04-10T08:40:59.300Z,12.43
2023-04-10T08:46:02.245Z,12.50
2023-04-10T08:51:06.093Z,12.54
2023-04-10T08:56:08.289Z,12.76
2023-04-10T09:01:13.594Z,12.70
2023-04-10T09:06:15.269Z,12.74
2023-04-10T09:11:16.967Z,12.71
2023-04-10T09:16:28.789Z,12.97
2023-04-10T09:21:31.370Z,13.11
2023-04-10T09:26:33.662Z,13.32
2023-04-10T09:31:37.480Z,13.21
2023-04-10T09:36:41.711Z,13.27
2023-04-10T09:41:55.381Z,13.24
2023-04-10T09:47:15.428Z,13.45
2023-04-10T09:52:44.287Z,13.63
2023-04-10T09:57:46.488Z,13.82
2023-04-10T10:02:48.932Z,13.93
2023-04-10T10:07:50.794Z,14.13
2023-04-10T10:12:55.918Z,14.05
2023-04-10T10:18:04.452Z,14.28
2023-04-10T10:23:07.708Z,14.49
2023-04-10T10:28:13.172Z,14.71
2023-04-10T10:33:15.082Z,14.59
2023-04-10T10:38:16.840Z,14.65
2023-04-10T10:43:26.079Z,14.46
2023-04-10T10:48:28.184Z,14.51
2023-04-10T10:53:43.376Z,14.59
2023-04-10T10:58:52.266Z,14.81
2023-04-10T11:03:54.299Z,15.13
2023-04-10T11:08:57.086Z,15.06
2023-04-10T11:14:01.397Z,15.25
2023-04-10T11:19:13.363Z,15.24
2023-04-10T11:24:34.087Z,15.13
2023-04-10T11:29:39.290Z,15.11
2023-04-10T11:34:45.102Z,15.35
2023-04-10T11:40:03.717Z,15.71
2023-04-10T11:45:26.152Z,15.30
2023-04-10T11:50:29.680Z,15.22
2023-04-10T11:55:39.073Z,15.31
2023-04-10T12:00:40.850Z,15.19
2023-04-10T12:05:47.176Z,15.40
2023-04-10T12:10:49.051Z,15.72
2023-04-10T12:15:51.068Z,15.51
2023-04-10T12:20:56.289Z,15.58
2023-04-10T12:26:17.420Z,15.52
2023-04-10T12:31:19.533Z,15.85
2023-04-10T12:36:22.765Z,15.83
2023-04-10T12:41:30.513Z,15.92
2023-04-10T12:46:32.390Z,15.60
2023-04-10T12:51:49.117Z,15.70
2023-04-10T12:56:51.461Z,15.68
2023-04-10T13:01:53.819Z,15.59
2023-04-10T13:06:55.670Z,15.75
2023-04-10T13:11:57.723Z,15.78
2023-04-10T13:16:59.368Z,15.71
2023-04-10T13:22:02.031Z,15.73
2023-04-10T13:27:03.989Z,15.63
2023-04-10T13:32:06.066Z,15.57
2023-04-10T13:37:07.819Z,15.51
2023-04-10T13:42:09.987Z,15.85
2023-04-10T13:47:11.729Z,15.93
2023-04-10T13:52:13.612Z,15.92
2023-04-10T13:57:15.381Z,15.53
2023-04-10T14:02:17.217Z,15.75
2023-04-10T14:07:19.909Z,15.73
2023-04-10T14:12:23.210Z,15.58
2023-04-10T14:17:25.499Z,15.58
2023-04-10T14:22:27.202Z,15.62
2023-04-10T14:27:28.855Z,15.78
2023-04-10T14:32:30.963Z,15.67
2023-04-10T14:37:32.736Z,15.72
2023-04-10T14:42:34.465Z,15.84
2023-04-10T14:47:36.417Z,15.78
2023-04-10T14:52:38.193Z,15.62
2023-04-10T14:57:39.881Z,15.68
2023-04-10T15:02:42.183Z,15.43
2023-04-10T15:07:44.394Z,15.40
2023-04-10T15:12:46.193Z,15.34
2023-04-10T15:17:48.281Z,15.38
2023-04-10T15:22:49.965Z,15.39
2023-04-10T15:27:51.684Z,15.39
2023-04-10T15:32:53.446Z,15.28
2023-04-10T15:37:55.441Z,15.21
2023-04-10T15:42:57.144Z,15.08
2023-04-10T15:48:01.177Z,15.04
2023-04-10T15:53:03.060Z,15.08
2023-04-10T15:58:04.720Z,15.00
2023-04-10T16:03:06.642Z,14.99
2023-04-10T16:08:08.454Z,14.98
2023-04-10T16:13:10.107Z,14.96
2023-04-10T16:18:11.854Z,14.93
2023-04-10T16:23:13.447Z,14.93
2023-04-10T16:28:15.229Z,14.90
2023-04-10T16:33:16.858Z,14.89
2023-04-10T16:38:18.535Z,14.80
2023-04-10T16:43:20.242Z,14.72
2023-04-10T16:48:21.989Z,14.67
2023-04-10T16:53:23.616Z,14.65
2023-04-10T16:58:25.907Z,14.61
2023-04-10T17:03:27.642Z,14.56
2023-04-10T17:08:29.529Z,14.42
2023-04-10T17:13:31.274Z,14.35
2023-04-10T17:18:32.902Z,14.27
2023-04-10T17:23:34.535Z,14.15
2023-04-10T17:28:36.766Z,14.08
2023-04-10T17:33:39.171Z,13.95
2023-04-10T17:38:42.013Z,13.68
2023-04-10T17:43:43.746Z,13.57
2023-04-10T17:48:45.715Z,13.41
2023-04-10T17:53:47.456Z,13.42
2023-04-10T17:58:49.259Z,13.31
2023-04-10T18:03:51.133Z,13.09
2023-04-10T18:08:53.224Z,12.98
2023-04-10T18:13:55.262Z,12.71
2023-04-10T18:18:57.014Z,12.68
2023-04-10T18:23:58.862Z,12.70
2023-04-10T18:29:00.783Z,12.67
2023-04-10T18:34:07.574Z,12.60
2023-04-10T18:39:10.811Z,12.51
2023-04-10T18:44:12.634Z,12.36
2023-04-10T18:49:14.351Z,12.20
2023-04-10T18:54:15.961Z,12.11
2023-04-10T18:59:17.605Z,11.95
2023-04-10T19:04:19.388Z,11.86
2023-04-10T19:09:21.578Z,11.68
2023-04-10T19:14:23.282Z,11.75
2023-04-10T19:19:24.892Z,11.72
2023-04-10T19:24:27.135Z,11.72
2023-04-10T19:29:31.540Z,11.63
2023-04-10T19:34:33.206Z,11.57
2023-04-10T19:39:34.961Z,11.55
2023-04-10T19:44:37.140Z,11.47
2023-04-10T19:49:38.895Z,11.41
2023-04-10T19:54:40.648Z,11.30
2023-04-10T19:59:42.278Z,11.12
2023-04-10T20:04:45.708Z,10.98
2023-04-10T20:09:49.807Z,10.86
2023-04-10T20:14:51.444Z,10.74
2023-04-10T20:19:53.055Z,10.59
2023-04-10T20:24:56.217Z,10.54
2023-04-10T20:29:57.948Z,10.41
2023-04-10T20:35:02.117Z,10.47
2023-04-10T20:40:05.917Z,10.45
2023-04-10T20:45:08.110Z,10.40
2023-04-10T20:50:13.039Z,10.30
2023-04-10T20:55:17.492Z,10.24
2023-04-10T21:00:22.217Z,10.14
2023-04-10T21:05:23.844Z,10.03
2023-04-10T21:10:27.069Z,9.90
2023-04-10T21:15:34.795Z,9.96
2023-04-10T21:20:37.705Z,9.85
2023-04-10T21:25:39.353Z,9.77
2023-04-10T21:30:41.033Z,9.65
2023-04-10T21:35:46.487Z,9.60
2023-04-10T21:41:03.874Z,9.56
2023-04-10T21:46:06.406Z,9.55
2023-04-10T21:51:08.154Z,9.55
2023-04-10T21:56:09.836Z,9.66
2023-04-10T22:01:12.535Z,9.73
2023-04-10T22:06:14.427Z,9.63
2023-04-10T22:11:16.162Z,9.62
2023-04-10T22:16:17.816Z,9.54
2023-04-10T22:21:19.472Z,9.46
2023-04-10T22:26:21.281Z,9.53
2023-04-10T22:31:23.152Z,9.76
2023-04-10T22:36:29.165Z,9.95
2023-04-10T22:41:31.806Z,9.93
2023-04-10T22:46:34.116Z,9.89
2023-04-10T22:51:35.887Z,9.83
2023-04-10T22:56:37.535Z,9.70
2023-04-10T23:01:39.221Z,9.67
2023-04-10T23:06:40.952Z,9.70
2023-04-10T23:11:43.095Z,9.76
2023-04-10T23:16:47.816Z,9.78
2023-04-10T23:21:50.035Z,9.79
2023-04-10T23:26:51.664Z,9.74
2023-04-10T23:31:53.298Z,9.73
2023-04-10T23:36:55.801Z,9.93
2023-04-10T23:41:57.563Z,9.96
2023-04-10T23:46:59.436Z,9.96
2023-04-10T23:52:01.090Z,9.82
2023-04-10T23:57:02.728Z,9.79
